createdAt,value
2018-11-03T00:00:37.125Z,8.18
2018-11-03T00:03:06.905Z,8.12
2018-11-03T00:05:35.737Z,8.14
2018-11-03T00:08:04.768Z,8.15
2018-11-03T00:10:34.137Z,8.08
2018-11-03T00:13:03.999Z,8.06
2018-11-03T00:15:32.924Z,8.08
2018-11-03T00:18:02.589Z,7.99
2018-11-03T00:20:31.746Z,7.98
2018-11-03T00:23:01.125Z,7.98
2018-11-03T00:25:30.460Z,7.99
2018-11-03T00:27:59.117Z,8.02
2018-11-03T00:30:28.102Z,7.95
2018-11-03T00:32:58.456Z,7.98
2018-11-03T00:35:27.876Z,7.94
2018-11-03T00:37:56.913Z,7.95
2018-11-03T00:40:25.880Z,7.94
2018-11-03T00:42:54.932Z,7.87
2018-11-03T00:45:24.431Z,7.75
2018-11-03T00:47:53.502Z,7.65
2018-11-03T00:50:22.308Z,7.62
2018-11-03T00:52:51.969Z,7.50
2018-11-03T00:55:21.281Z,7.59
2018-11-03T00:57:50.368Z,7.55
2018-11-03T01:00:19.697Z,7.48
2018-11-03T01:02:49.920Z,7.52
2018-11-03T01:05:19.111Z,7.55
2018-11-03T01:07:48.548Z,7.53
2018-11-03T01:10:17.755Z,7.55
2018-11-03T01:12:47.739Z,7.51
2018-11-03T01:15:18.444Z,7.54
2018-11-03T01:17:47.378Z,7.54
2018-11-03T01:20:17.638Z,7.50
2018-11-03T01:22:47.126Z,7.56
2018-11-03T01:25:16.323Z,7.46
2018-11-03T01:27:45.955Z,7.49
2018-11-03T01:30:16.021Z,7.51
2018-11-03T01:32:45.173Z,7.44
2018-11-03T01:35:13.788Z,7.46
2018-11-03T01:37:42.703Z,7.48
2018-11-03T01:40:12.741Z,7.43
2018-11-03T01:42:41.757Z,7.39
2018-11-03T01:45:10.465Z,7.41
2018-11-03T01:47:39.402Z,7.39
2018-11-03T01:50:09.556Z,7.44
2018-11-03T01:52:39.197Z,7.32
2018-11-03T01:55:08.609Z,7.28
2018-11-03T01:57:38.107Z,7.23
2018-11-03T02:00:07.587Z,7.21
2018-11-03T02:02:36.351Z,7.19
2018-11-03T02:05:05.282Z,7.18
2018-11-03T02:07:34.960Z,7.22
2018-11-03T02:10:03.658Z,7.21
2018-11-03T02:12:33.186Z,7.22
2018-11-03T02:15:02.159Z,7.24
2018-11-03T02:17:31.170Z,7.32
2018-11-03T02:20:00.134Z,7.28
2018-11-03T02:22:29.403Z,7.27
2018-11-03T02:24:58.989Z,7.25
2018-11-03T02:27:27.997Z,7.27
2018-11-03T02:29:56.898Z,7.23
2018-11-03T02:32:26.417Z,7.24
2018-11-03T02:34:55.354Z,7.38
2018-11-03T02:37:25.005Z,7.23
2018-11-03T02:39:53.885Z,7.13
2018-11-03T02:42:22.702Z,7.14
2018-11-03T02:44:51.563Z,7.06
2018-11-03T02:47:20.372Z,6.98
2018-11-03T02:49:48.960Z,7.03
2018-11-03T02:52:18.434Z,6.97
2018-11-03T02:54:47.335Z,7.02
2018-11-03T02:57:16.229Z,6.85
2018-11-03T02:59:45.598Z,6.87
2018-11-03T03:02:15.095Z,6.67
2018-11-03T03:04:44.280Z,6.58
2018-11-03T03:07:14.004Z,6.56
2018-11-03T03:09:42.989Z,6.49
2018-11-03T03:12:12.182Z,6.36
2018-11-03T03:14:41.664Z,6.28
2018-11-03T03:17:11.044Z,6.11
2018-11-03T03:19:40.240Z,6.03
2018-11-03T03:22:09.151Z,6.09
2018-11-03T03:24:38.577Z,6.06
2018-11-03T03:27:07.136Z,5.93
2018-11-03T03:29:36.148Z,5.94
2018-11-03T03:32:05.626Z,5.87
2018-11-03T03:34:35.328Z,5.89
2018-11-03T03:37:04.472Z,5.82
2018-11-03T03:39:34.099Z,5.78
2018-11-03T03:42:03.537Z,5.72
2018-11-03T03:44:32.601Z,5.77
2018-11-03T03:47:02.056Z,5.75
2018-11-03T03:49:31.265Z,5.72
2018-11-03T03:52:00.697Z,5.73
2018-11-03T03:54:29.589Z,5.67
2018-11-03T03:56:58.194Z,5.62
2018-11-03T03:59:27.311Z,5.56
2018-11-03T04:01:56.581Z,5.56
2018-11-03T04:04:25.970Z,5.54
2018-11-03T04:06:55.540Z,5.58
2018-11-03T04:09:24.631Z,5.46
2018-11-03T04:11:54.040Z,5.41
2018-11-03T04:14:22.932Z,5.36
2018-11-03T04:16:52.414Z,5.33
2018-11-03T04:19:21.455Z,5.36
2018-11-03T04:21:50.811Z,5.37
2018-11-03T04:24:19.402Z,5.29
2018-11-03T04:26:48.458Z,5.23
2018-11-03T04:29:18.084Z,5.19
2018-11-03T04:31:47.139Z,5.09
2018-11-03T04:34:16.492Z,4.89
2018-11-03T04:36:45.640Z,4.91
2018-11-03T04:39:15.256Z,4.82
2018-11-03T04:41:44.170Z,4.73
2018-11-03T04:44:13.484Z,4.72
2018-11-03T04:46:42.859Z,4.71
2018-11-03T04:49:12.010Z,4.58
2018-11-03T04:51:41.439Z,4.50
2018-11-03T04:54:10.931Z,4.39
2018-11-03T04:56:39.543Z,4.36
2018-11-03T04:59:09.376Z,4.32
2018-11-03T05:01:38.165Z,4.16
2018-11-03T05:04:07.112Z,4.22
2018-11-03T05:06:37.114Z,4.20
2018-11-03T05:09:08.413Z,4.21
2018-11-03T05:11:37.608Z,4.14
2018-11-03T05:14:08.020Z,4.13
2018-11-03T05:16:37.228Z,4.09
2018-11-03T05:19:06.429Z,4.14
2018-11-03T05:21:35.439Z,4.10
2018-11-03T05:24:04.842Z,4.11
2018-11-03T05:26:34.077Z,3.96
2018-11-03T05:29:03.679Z,3.99
2018-11-03T05:31:32.620Z,3.89
2018-11-03T05:34:01.723Z,3.84
2018-11-03T05:36:30.893Z,3.81
2018-11-03T05:39:00.044Z,3.83
2018-11-03T05:41:28.940Z,3.80
2018-11-03T05:43:57.817Z,3.83
2018-11-03T05:46:26.720Z,3.84
2018-11-03T05:48:55.778Z,3.83
2018-11-03T05:51:25.065Z,3.88
2018-11-03T05:53:54.187Z,3.90
2018-11-03T05:56:23.447Z,3.91
2018-11-03T05:58:52.819Z,3.86
2018-11-03T06:01:22.975Z,3.77
2018-11-03T06:03:52.005Z,3.69
2018-11-03T06:06:20.920Z,3.59
2018-11-03T06:08:49.767Z,3.66
2018-11-03T06:11:18.869Z,3.66
2018-11-03T06:13:48.398Z,3.66
2018-11-03T06:16:17.523Z,3.53
2018-11-03T06:18:47.213Z,3.46
2018-11-03T06:21:16.842Z,3.45
2018-11-03T06:23:46.358Z,3.41
2018-11-03T06:26:15.002Z,3.37
2018-11-03T06:28:44.269Z,3.46
2018-11-03T06:31:13.182Z,3.44
2018-11-03T06:33:43.201Z,3.40
2018-11-03T06:36:12.546Z,3.36
2018-11-03T06:38:41.685Z,3.37
2018-11-03T06:41:10.954Z,3.39
2018-11-03T06:43:40.148Z,3.33
2018-11-03T06:46:09.550Z,3.33
2018-11-03T06:48:38.661Z,3.38
2018-11-03T06:51:08.067Z,3.29
2018-11-03T06:53:37.197Z,3.32
2018-11-03T06:56:05.939Z,3.26
2018-11-03T06:58:35.853Z,3.21
2018-11-03T07:01:05.098Z,3.16
2018-11-03T07:03:34.380Z,3.12
2018-11-03T07:06:03.799Z,3.21
2018-11-03T07:08:33.095Z,3.11
2018-11-03T07:11:02.008Z,3.10
2018-11-03T07:13:31.132Z,3.01
2018-11-03T07:15:59.958Z,2.91
2018-11-03T07:18:29.140Z,3.03
2018-11-03T07:20:58.473Z,3.10
2018-11-03T07:23:29.499Z,3.22
2018-11-03T07:25:59.570Z,3.27
2018-11-03T07:28:37.552Z,3.31
2018-11-03T07:31:08.925Z,3.39
2018-11-03T07:33:48.165Z,3.32
2018-11-03T07:36:32.922Z,3.21
2018-11-03T07:39:36.325Z,3.26
2018-11-03T07:42:10.554Z,3.14
2018-11-03T07:44:39.920Z,3.14
2018-11-03T07:47:14.798Z,3.20
2018-11-03T07:49:52.961Z,3.39
2018-11-03T07:52:28.409Z,3.46
2018-11-03T07:55:04.029Z,3.54
2018-11-03T07:57:37.594Z,3.58
2018-11-03T08:00:10.931Z,3.80
2018-11-03T08:02:42.974Z,3.91
2018-11-03T08:05:14.748Z,3.92
2018-11-03T08:07:43.656Z,3.98
2018-11-03T08:10:13.150Z,4.06
2018-11-03T08:12:41.983Z,4.20
2018-11-03T08:15:11.751Z,4.34
2018-11-03T08:17:50.475Z,4.47
2018-11-03T08:20:34.526Z,4.52
2018-11-03T08:23:08.807Z,4.75
2018-11-03T08:25:53.927Z,4.91
2018-11-03T08:28:28.057Z,4.97
2018-11-03T08:31:00.634Z,5.16
2018-11-03T08:33:33.279Z,5.35
2018-11-03T08:36:12.863Z,5.35
2018-11-03T08:38:47.908Z,5.44
2018-11-03T08:41:17.202Z,5.55
2018-11-03T08:43:46.309Z,5.70
2018-11-03T08:46:26.092Z,5.93
2018-11-03T08:49:04.770Z,6.04
2018-11-03T08:51:43.160Z,6.11
2018-11-03T08:54:16.742Z,6.40
2018-11-03T08:59:33.409Z,6.76
2018-11-03T09:02:02.187Z,6.96
2018-11-03T09:04:43.497Z,7.12
2018-11-03T09:07:26.623Z,7.36
2018-11-03T09:09:56.697Z,7.57
2018-11-03T09:12:27.631Z,7.73
2018-11-03T09:14:58.169Z,8.09
2018-11-03T09:17:42.203Z,8.25
2018-11-03T09:20:37.111Z,8.45
2018-11-03T09:23:24.822Z,8.58
2018-11-03T09:25:59.454Z,8.82
2018-11-03T09:28:40.916Z,9.26
2018-11-03T09:31:21.354Z,9.62
2018-11-03T09:34:01.693Z,9.59
2018-11-03T09:36:38.470Z,9.84
2018-11-03T09:39:09.699Z,10.13
2018-11-03T09:41:42.899Z,10.23
2018-11-03T09:44:22.844Z,10.26
2018-11-03T09:46:56.374Z,10.25
2018-11-03T09:49:40.413Z,10.11
2018-11-03T09:52:16.979Z,10.15
2018-11-03T09:54:57.212Z,10.47
2018-11-03T09:57:28.804Z,10.80
2018-11-03T09:59:58.278Z,10.84
2018-11-03T10:02:28.937Z,10.69
2018-11-03T10:04:59.556Z,10.94
2018-11-03T10:07:28.485Z,11.10
2018-11-03T10:09:58.052Z,11.47
2018-11-03T10:12:26.657Z,11.65
2018-11-03T10:14:58.265Z,11.55
2018-11-03T10:17:55.796Z,12.06
2018-11-03T10:20:29.566Z,12.12
2018-11-03T10:23:09.943Z,12.10
2018-11-03T10:25:40.321Z,12.37
2018-11-03T10:28:10.338Z,12.60
2018-11-03T10:30:45.438Z,12.57
2018-11-03T10:33:14.318Z,12.94
2018-11-03T10:35:43.657Z,12.52
2018-11-03T10:38:13.110Z,12.99
2018-11-03T10:40:43.023Z,13.36
2018-11-03T10:43:12.185Z,13.22
2018-11-03T10:45:42.624Z,13.38
2018-11-03T10:48:12.051Z,13.73
2018-11-03T10:50:41.351Z,13.13
2018-11-03T10:53:10.779Z,13.55
2018-11-03T10:55:39.852Z,13.36
2018-11-03T10:58:08.815Z,13.65
2018-11-03T11:00:43.575Z,13.56
2018-11-03T11:03:17.626Z,14.00
2018-11-03T11:05:52.890Z,13.94
2018-11-03T11:08:26.574Z,13.67
2018-11-03T11:11:00.417Z,13.70
2018-11-03T11:13:31.058Z,13.61
2018-11-03T11:16:00.618Z,13.96
2018-11-03T11:18:29.680Z,14.03
2018-11-03T11:20:59.295Z,14.15
2018-11-03T11:23:29.185Z,14.34
2018-11-03T11:25:58.281Z,14.61
2018-11-03T11:28:27.326Z,14.94
2018-11-03T11:30:58.262Z,14.42
2018-11-03T11:33:26.922Z,14.63
2018-11-03T11:35:56.130Z,14.64
2018-11-03T11:38:25.871Z,14.44
2018-11-03T11:40:55.861Z,14.48
2018-11-03T11:43:24.944Z,14.92
2018-11-03T11:45:54.208Z,15.27
2018-11-03T11:48:23.272Z,15.24
2018-11-03T11:50:53.102Z,15.78
2018-11-03T11:53:22.152Z,15.53
2018-11-03T11:55:51.605Z,15.42
2018-11-03T11:58:20.424Z,15.53
2018-11-03T12:00:49.246Z,15.65
2018-11-03T12:03:18.861Z,15.37
2018-11-03T12:05:48.560Z,15.53
2018-11-03T12:08:17.536Z,15.75
2018-11-03T12:10:47.897Z,15.99
2018-11-03T12:13:17.574Z,16.04
2018-11-03T12:15:46.705Z,16.39
2018-11-03T12:18:15.940Z,16.28
2018-11-03T12:20:45.158Z,16.56
2018-11-03T12:23:13.944Z,16.94
2018-11-03T12:25:44.430Z,17.48
2018-11-03T12:28:13.749Z,17.61
2018-11-03T12:30:42.685Z,17.47
2018-11-03T12:33:12.335Z,17.66
2018-11-03T12:35:41.450Z,17.94
2018-11-03T12:38:11.296Z,18.47
2018-11-03T12:40:40.492Z,18.55
2018-11-03T12:43:09.621Z,18.72
2018-11-03T12:45:38.818Z,18.95
2018-11-03T12:48:08.619Z,18.62
2018-11-03T12:50:37.746Z,18.31
2018-11-03T12:53:07.638Z,18.73
2018-11-03T12:55:37.035Z,19.22
2018-11-03T12:58:07.141Z,19.46
2018-11-03T13:00:36.346Z,19.69
2018-11-03T13:03:06.056Z,19.52
2018-11-03T13:05:35.880Z,20.05
2018-11-03T13:08:05.212Z,20.09
2018-11-03T13:10:35.233Z,20.41
2018-11-03T13:13:04.552Z,20.85
2018-11-03T13:15:33.671Z,20.65
2018-11-03T13:18:03.103Z,21.19
2018-11-03T13:20:31.954Z,21.53
2018-11-03T13:23:01.154Z,21.26
2018-11-03T13:25:30.723Z,21.47
2018-11-03T13:27:59.945Z,21.55
2018-11-03T13:30:28.784Z,21.13
2018-11-03T13:32:58.097Z,21.29
2018-11-03T13:35:27.605Z,21.87
2018-11-03T13:37:56.607Z,21.97
2018-11-03T13:40:26.090Z,22.13
2018-11-03T13:42:55.938Z,22.29
2018-11-03T13:45:25.375Z,22.00
2018-11-03T13:47:54.630Z,22.72
2018-11-03T13:50:24.088Z,22.97
2018-11-03T13:52:53.537Z,22.66
2018-11-03T13:55:22.722Z,22.08
2018-11-03T13:57:51.308Z,21.83
2018-11-03T14:00:20.527Z,20.65
2018-11-03T14:02:49.547Z,19.91
2018-11-03T14:05:18.639Z,19.87
2018-11-03T14:07:47.638Z,19.59
2018-11-03T14:10:17.461Z,20.09
2018-11-03T14:12:47.268Z,20.35
2018-11-03T14:15:17.419Z,19.93
2018-11-03T14:17:46.768Z,20.74
2018-11-03T14:20:16.928Z,20.98
2018-11-03T14:22:46.845Z,21.11
2018-11-03T14:25:17.304Z,21.87
2018-11-03T14:27:47.910Z,21.80
2018-11-03T14:30:16.956Z,21.74
2018-11-03T14:32:46.602Z,21.13
2018-11-03T14:35:16.124Z,21.29
2018-11-03T14:37:45.869Z,21.06
2018-11-03T14:40:15.803Z,20.50
2018-11-03T14:42:44.929Z,20.58
2018-11-03T14:45:15.452Z,20.36
2018-11-03T14:47:44.955Z,19.88
2018-11-03T14:50:14.061Z,19.60
2018-11-03T14:52:43.779Z,19.51
2018-11-03T14:55:13.713Z,19.09
2018-11-03T14:57:43.643Z,19.06
2018-11-03T15:00:15.028Z,18.98
2018-11-03T15:02:44.275Z,18.65
2018-11-03T15:05:13.841Z,17.95
2018-11-03T15:07:43.017Z,17.90
2018-11-03T15:10:12.437Z,17.75
2018-11-03T15:12:41.923Z,17.81
2018-11-03T15:15:12.689Z,17.28
2018-11-03T15:17:42.210Z,16.85
2018-11-03T15:20:12.789Z,16.95
2018-11-03T15:22:42.247Z,16.58
2018-11-03T15:25:15.736Z,16.56
2018-11-03T15:27:44.937Z,16.65
2018-11-03T15:30:15.195Z,16.76
2018-11-03T15:32:49.641Z,16.82
2018-11-03T15:35:26.709Z,16.72
2018-11-03T15:38:02.656Z,16.22
2018-11-03T15:40:37.726Z,15.61
2018-11-03T15:43:11.794Z,15.25
2018-11-03T15:45:40.613Z,14.74
2018-11-03T15:48:09.529Z,14.49
2018-11-03T15:50:49.969Z,14.26
2018-11-03T15:53:23.558Z,13.88
2018-11-03T15:56:00.697Z,13.64
2018-11-03T15:58:32.530Z,13.51
2018-11-03T16:03:40.623Z,12.89
2018-11-03T16:06:09.682Z,12.90
2018-11-03T16:08:39.140Z,12.78
2018-11-03T16:11:09.518Z,12.64
2018-11-03T16:13:38.491Z,12.43
2018-11-03T16:16:07.581Z,12.29
2018-11-03T16:18:36.586Z,12.31
2018-11-03T16:21:06.410Z,12.18
2018-11-03T16:23:46.071Z,12.10
2018-11-03T16:26:20.395Z,11.96
2018-11-03T16:29:05.630Z,11.88
2018-11-03T16:31:35.181Z,11.71
2018-11-03T16:34:07.831Z,11.61
2018-11-03T16:36:38.602Z,11.54
2018-11-03T16:39:21.758Z,11.47
2018-11-03T16:41:57.670Z,11.39
2018-11-03T16:44:32.499Z,11.29
2018-11-03T16:47:01.626Z,11.13
2018-11-03T16:49:30.411Z,11.06
2018-11-03T16:51:59.644Z,10.89
2018-11-03T16:54:29.616Z,10.88
2018-11-03T16:56:58.765Z,10.98
2018-11-03T16:59:28.573Z,11.02
2018-11-03T17:01:57.212Z,10.84
2018-11-03T17:04:27.099Z,10.78
2018-11-03T17:06:56.717Z,10.87
2018-11-03T17:09:26.331Z,10.79
2018-11-03T17:11:55.782Z,10.75
2018-11-03T17:14:24.375Z,10.62
2018-11-03T17:16:53.394Z,10.51
2018-11-03T17:19:22.594Z,10.29
2018-11-03T17:21:52.360Z,10.20
2018-11-03T17:24:21.517Z,10.11
2018-11-03T17:26:50.717Z,10.12
2018-11-03T17:29:20.793Z,10.12
2018-11-03T17:31:50.055Z,10.23
2018-11-03T17:34:18.654Z,10.15
2018-11-03T17:36:47.584Z,10.15
2018-11-03T17:39:16.141Z,10.12
2018-11-03T17:41:45.209Z,10.10
2018-11-03T17:44:14.245Z,10.10
2018-11-03T17:46:43.473Z,10.03
2018-11-03T17:49:12.788Z,9.92
2018-11-03T17:51:42.285Z,9.65
2018-11-03T17:54:12.377Z,9.79
2018-11-03T17:56:42.313Z,9.64
2018-11-03T17:59:12.335Z,9.52
2018-11-03T18:01:42.666Z,9.54
2018-11-03T18:04:16.101Z,9.42
2018-11-03T18:06:50.987Z,9.40
2018-11-03T18:09:28.329Z,9.31
2018-11-03T18:11:58.467Z,9.37
2018-11-03T18:17:10.643Z,9.56
2018-11-03T18:19:45.092Z,9.32
2018-11-03T18:22:20.668Z,9.25
2018-11-03T18:25:00.455Z,9.33
2018-11-03T18:27:32.847Z,9.11
2018-11-03T18:30:10.093Z,9.18
2018-11-03T18:32:53.721Z,9.18
2018-11-03T18:35:29.249Z,9.32
2018-11-03T18:38:04.089Z,9.23
2018-11-03T18:40:40.991Z,9.21
2018-11-03T18:43:10.145Z,9.16
2018-11-03T18:45:39.036Z,9.17
2018-11-03T18:48:07.951Z,9.18
2018-11-03T18:50:37.126Z,9.02
2018-11-03T18:53:08.166Z,8.92
2018-11-03T18:55:37.126Z,9.04
2018-11-03T18:58:06.623Z,8.92
2018-11-03T19:00:36.593Z,9.00
2018-11-03T19:03:05.458Z,8.91
2018-11-03T19:05:35.434Z,8.79
2018-11-03T19:08:05.129Z,8.77
2018-11-03T19:10:35.289Z,8.79
2018-11-03T19:13:04.196Z,8.73
2018-11-03T19:15:33.456Z,8.69
2018-11-03T19:18:02.603Z,8.73
2018-11-03T19:20:33.038Z,8.74
2018-11-03T19:23:01.605Z,8.77
2018-11-03T19:25:30.704Z,8.66
2018-11-03T19:28:02.034Z,8.71
2018-11-03T19:30:31.938Z,8.63
2018-11-03T19:33:01.321Z,8.63
2018-11-03T19:35:34.089Z,8.60
2018-11-03T19:38:03.295Z,8.55
2018-11-03T19:40:32.532Z,8.52
2018-11-03T19:43:03.209Z,8.42
2018-11-03T19:45:32.673Z,8.35
2018-11-03T19:48:01.625Z,8.32
2018-11-03T19:50:30.176Z,8.28
2018-11-03T19:52:59.073Z,8.30
2018-11-03T19:55:28.371Z,8.19
2018-11-03T19:57:58.480Z,7.97
2018-11-03T20:00:27.656Z,7.92
2018-11-03T20:02:56.833Z,7.95
2018-11-03T20:05:25.585Z,7.75
2018-11-03T20:07:55.145Z,7.74
2018-11-03T20:10:24.241Z,7.70
2018-11-03T20:12:53.126Z,7.59
2018-11-03T20:15:22.640Z,7.64
2018-11-03T20:17:51.892Z,7.53
2018-11-03T20:20:21.957Z,7.51
2018-11-03T20:22:50.981Z,7.42
2018-11-03T20:25:20.639Z,7.54
2018-11-03T20:27:49.823Z,7.52
2018-11-03T20:30:18.940Z,7.55
2018-11-03T20:32:47.564Z,7.50
2018-11-03T20:35:17.881Z,7.59
2018-11-03T20:37:47.327Z,7.48
2018-11-03T20:40:16.695Z,7.45
2018-11-03T20:42:46.148Z,7.39
2018-11-03T20:45:15.968Z,7.39
2018-11-03T20:47:46.677Z,7.42
2018-11-03T20:50:15.556Z,7.44
2018-11-03T20:52:44.619Z,7.48
2018-11-03T20:55:13.714Z,7.44
2018-11-03T20:57:43.200Z,7.45
2018-11-03T21:00:14.705Z,7.42
2018-11-03T21:02:45.507Z,7.52
2018-11-03T21:05:14.703Z,7.52
2018-11-03T21:07:43.968Z,7.50
2018-11-03T21:10:13.374Z,7.53
2018-11-03T21:12:43.807Z,7.53
2018-11-03T21:15:13.586Z,7.59
2018-11-03T21:17:42.512Z,7.65
2018-11-03T21:20:12.567Z,7.66
2018-11-03T21:22:41.761Z,7.70
2018-11-03T21:25:11.220Z,7.70
2018-11-03T21:27:40.965Z,7.62
2018-11-03T21:30:11.460Z,7.68
2018-11-03T21:32:41.271Z,7.69
2018-11-03T21:35:10.499Z,7.68
2018-11-03T21:37:39.839Z,7.71
2018-11-03T21:40:08.866Z,7.79
2018-11-03T21:42:37.958Z,7.86
2018-11-03T21:45:07.648Z,7.89
2018-11-03T21:47:36.643Z,7.94
2018-11-03T21:50:05.845Z,8.00
2018-11-03T21:52:35.081Z,7.99
2018-11-03T21:55:05.053Z,8.07
2018-11-03T21:57:35.137Z,8.08
2018-11-03T22:00:05.217Z,8.09
2018-11-03T22:02:35.225Z,8.07
2018-11-03T22:05:04.400Z,8.03
2018-11-03T22:07:34.021Z,8.13
2018-11-03T22:10:03.401Z,8.20
2018-11-03T22:12:32.613Z,8.20
2018-11-03T22:15:02.434Z,8.15
2018-11-03T22:17:32.603Z,8.19
2018-11-03T22:20:01.654Z,8.18
2018-11-03T22:22:31.668Z,8.14
2018-11-03T22:25:00.907Z,8.15
2018-11-03T22:27:30.618Z,8.21
2018-11-03T22:30:00.256Z,8.18
2018-11-03T22:32:29.267Z,8.22
2018-11-03T22:34:58.768Z,8.21
2018-11-03T22:37:28.369Z,8.18
2018-11-03T22:39:58.196Z,8.10
2018-11-03T22:42:27.657Z,8.16
2018-11-03T22:44:57.573Z,8.25
2018-11-03T22:47:27.333Z,8.20
2018-11-03T22:49:56.519Z,8.25
2018-11-03T22:52:25.796Z,8.32
2018-11-03T22:54:55.462Z,8.29
2018-11-03T22:57:24.542Z,8.31
2018-11-03T22:59:53.510Z,8.33
2018-11-03T23:02:22.456Z,8.35
2018-11-03T23:04:51.929Z,8.31
2018-11-03T23:07:21.168Z,8.35
2018-11-03T23:09:51.096Z,8.38
2018-11-03T23:12:20.000Z,8.37
2018-11-03T23:14:50.179Z,8.36
2018-11-03T23:17:19.007Z,8.37
2018-11-03T23:19:48.223Z,8.38
2018-11-03T23:22:17.879Z,8.40
2018-11-03T23:24:46.504Z,8.37
2018-11-03T23:27:16.009Z,8.33
2018-11-03T23:29:44.895Z,8.37
2018-11-03T23:32:13.742Z,8.41
2018-11-03T23:34:43.442Z,8.45
2018-11-03T23:37:12.545Z,8.44
2018-11-03T23:39:42.156Z,8.41
2018-11-03T23:42:11.725Z,8.40
2018-11-03T23:44:40.625Z,8.36
2018-11-03T23:47:10.173Z,8.30
2018-11-03T23:49:39.531Z,8.27
2018-11-03T23:52:09.883Z,8.29
2018-11-03T23:54:39.154Z,8.22
2018-11-03T23:57:08.110Z,8.25
2018-11-03T23:59:37.660Z,8.25
